Time;durP1;ratioP1;P1;durP2;ratioP2;P2;SDS_P1;SDS_P2;PMS_P1;PMS_P2;Temp;Humidity;BMP_temperature;BMP_pressure;BME280_temperature;BME280_humidity;BME280_pressure;Samples;Min_cycle;Max_cycle;Signal;HPM_P1;HPM_P2
2021/03/30 00:01:32;;;;;;;;;;;6.20;90.20;;;;;;5071107;28;19909;-75
2021/03/30 00:03:58;;;;;;;;;;;6.10;90.30;;;;;;5071677;28;20609;-75
2021/03/30 00:06:23;;;;;;;;;;;6.10;90.30;;;;;;5070380;28;19908;-75
2021/03/30 00:08:49;;;;;;;;;;;6.10;90.30;;;;;;5070860;28;19908;-75
2021/03/30 00:11:14;;;;;;;;;;;6.20;90.30;;;;;;5071034;28;19948;-75
2021/03/30 00:13:40;;;;;;;;;;;6.20;90.20;;;;;;5061310;28;19982;-75
2021/03/30 00:16:06;;;;;;;;;;;6.10;90.40;;;;;;5069912;28;20011;-75
2021/03/30 00:18:31;;;;;;;;;;;6.00;90.50;;;;;;5070776;28;20458;-75
2021/03/30 00:20:57;;;;;;;;;;;5.90;90.60;;;;;;5071271;28;19904;-75
2021/03/30 00:23:22;;;;;;;;;;;5.90;90.50;;;;;;5062542;28;20344;-75
2021/03/30 00:25:48;;;;;;;;;;;5.90;90.60;;;;;;5069837;28;20439;-75
2021/03/30 00:28:13;;;;;;;;;;;5.80;90.50;;;;;;5070763;28;19908;-75
2021/03/30 00:30:39;;;;;;;;;;;5.80;90.40;;;;;;5071054;28;19935;-75
2021/03/30 00:33:04;;;;;;;;;;;5.80;90.10;;;;;;5070727;28;19909;-75
2021/03/30 00:35:30;;;;;;;;;;;5.90;88.60;;;;;;5070683;28;19920;-75
2021/03/30 00:37:55;;;;;;;;;;;5.90;86.70;;;;;;5067078;28;20010;-75
2021/03/30 00:40:21;;;;;;;;;;;6.00;86.40;;;;;;5070686;28;20293;-75
2021/03/30 00:42:46;;;;;;;;;;;6.20;87.20;;;;;;5070277;28;19909;-75
2021/03/30 00:45:12;;;;;;;;;;;6.20;89.20;;;;;;5070909;28;20389;-75
2021/03/30 00:47:41;;;;;;;;;;;6.20;89.30;;;;;;5069539;28;19909;-75
2021/03/30 00:50:09;;;;;;;;;;;6.20;88.70;;;;;;5070690;28;19909;-75
2021/03/30 00:52:37;;;;;;;;;;;6.10;87.90;;;;;;5070654;28;19995;-75
2021/03/30 00:55:03;;;;;;;;;;;6.10;89.30;;;;;;5070902;28;19912;-75
2021/03/30 00:57:28;;;;;;;;;;;6.10;90.20;;;;;;5069410;28;20289;-75
2021/03/30 00:59:54;;;;;;;;;;;6.00;90.00;;;;;;5070485;28;19913;-75
2021/03/30 01:02:19;;;;;;;;;;;5.90;90.00;;;;;;5070357;28;20385;-75
2021/03/30 01:04:45;;;;;;;;;;;5.80;90.30;;;;;;5070747;28;19974;-75
2021/03/30 01:07:10;;;;;;;;;;;5.80;90.10;;;;;;5060346;28;19912;-75
2021/03/30 01:09:54;;;;;;;;;;;5.70;90.10;;;;;;5069830;28;19962;-75
2021/03/30 01:12:38;;;;;;;;;;;5.70;90.00;;;;;;5070214;28;19916;-75
2021/03/30 01:15:09;;;;;;;;;;;5.70;89.80;;;;;;5070597;28;20270;-75
2021/03/30 01:17:40;;;;;;;;;;;5.70;90.00;;;;;;5069297;28;20377;-75
2021/03/30 01:20:24;;;;;;;;;;;5.70;90.30;;;;;;5066878;28;19912;-75
2021/03/30 01:23:18;;;;;;;;;;;5.60;90.60;;;;;;5070298;28;20358;-75
2021/03/30 01:25:46;;;;;;;;;;;5.70;90.60;;;;;;5071112;28;19909;-75
2021/03/30 01:28:32;;;;;;;;;;;5.70;90.50;;;;;;5073543;28;19916;-75
2021/03/30 01:30:58;;;;;;;;;;;5.70;90.70;;;;;;5073805;28;20262;-75
2021/03/30 01:33:26;;;;;;;;;;;5.60;91.00;;;;;;5073779;28;20385;-75
2021/03/30 01:35:53;;;;;;;;;;;5.60;91.20;;;;;;5072668;28;20289;-75
2021/03/30 01:38:19;;;;;;;;;;;5.50;91.40;;;;;;5073511;28;19957;-75
2021/03/30 01:40:45;;;;;;;;;;;5.50;91.80;;;;;;5073693;28;20005;-75
2021/03/30 01:43:10;;;;;;;;;;;5.40;91.90;;;;;;5065866;28;20308;-75
2021/03/30 01:45:36;;;;;;;;;;;5.40;92.10;;;;;;5073092;28;19979;-75
2021/03/30 01:48:02;;;;;;;;;;;5.40;92.20;;;;;;5072701;28;19955;-75
2021/03/30 01:50:28;;;;;;;;;;;5.30;92.50;;;;;;5073932;28;19916;-75
2021/03/30 01:52:56;;;;;;;;;;;5.20;92.80;;;;;;5073806;28;19995;-75
2021/03/30 01:55:22;;;;;;;;;;;5.10;93.20;;;;;;5073429;28;20003;-75
2021/03/30 01:57:50;;;;;;;;;;;5.00;93.60;;;;;;5072211;28;20003;-75
2021/03/30 02:00:16;;;;;;;;;;;4.90;94.00;;;;;;5073196;28;19920;-75
2021/03/30 02:02:43;;;;;;;;;;;4.90;94.40;;;;;;5073116;28;19909;-75
2021/03/30 02:05:09;;;;;;;;;;;4.80;94.60;;;;;;5073318;28;19912;-75
2021/03/30 02:07:35;;;;;;;;;;;4.80;94.80;;;;;;5072123;28;19909;-75
2021/03/30 02:10:06;;;;;;;;;;;4.80;94.80;;;;;;5073232;28;19913;-75
2021/03/30 02:12:34;;;;;;;;;;;4.70;94.90;;;;;;5070448;28;20000;-75
2021/03/30 02:14:59;;;;;;;;;;;4.70;95.20;;;;;;5072920;28;19909;-75
2021/03/30 02:17:43;;;;;;;;;;;4.70;95.30;;;;;;5071921;28;19961;-75
2021/03/30 02:20:11;;;;;;;;;;;4.70;95.50;;;;;;5072031;28;19965;-75
2021/03/30 02:22:36;;;;;;;;;;;4.60;95.50;;;;;;5072165;28;20281;-75
2021/03/30 02:25:04;;;;;;;;;;;4.70;95.50;;;;;;5072894;28;19913;-75
2021/03/30 02:27:30;;;;;;;;;;;4.60;95.70;;;;;;5071782;28;19909;-75
2021/03/30 02:29:56;;;;;;;;;;;4.60;95.80;;;;;;5070996;28;19914;-75
2021/03/30 02:32:23;;;;;;;;;;;4.60;95.80;;;;;;5072801;28;19908;-75
2021/03/30 02:34:51;;;;;;;;;;;4.60;96.00;;;;;;5072503;28;20278;-75
2021/03/30 02:37:18;;;;;;;;;;;4.60;96.10;;;;;;5071023;28;19954;-75
2021/03/30 02:39:43;;;;;;;;;;;4.60;96.10;;;;;;5072658;28;19918;-75
2021/03/30 02:42:10;;;;;;;;;;;4.60;96.00;;;;;;5072617;28;19908;-75
2021/03/30 02:44:36;;;;;;;;;;;4.60;96.00;;;;;;5072070;28;20673;-75
2021/03/30 02:47:02;;;;;;;;;;;4.70;96.20;;;;;;5071379;28;20007;-75
2021/03/30 02:49:28;;;;;;;;;;;4.70;96.30;;;;;;5071071;28;19908;-75
2021/03/30 02:51:55;;;;;;;;;;;4.60;96.40;;;;;;5071511;28;19908;-75
2021/03/30 02:54:21;;;;;;;;;;;4.50;96.60;;;;;;5070827;28;19913;-75
2021/03/30 02:56:47;;;;;;;;;;;4.40;96.70;;;;;;5071162;28;20423;-75
2021/03/30 02:59:13;;;;;;;;;;;4.30;97.00;;;;;;5071563;28;20280;-75
2021/03/30 03:01:39;;;;;;;;;;;4.30;97.20;;;;;;5072161;28;20003;-75
2021/03/30 03:04:05;;;;;;;;;;;4.20;97.40;;;;;;5072031;28;20361;-75
2021/03/30 03:06:31;;;;;;;;;;;4.20;97.60;;;;;;5070951;28;19912;-75
2021/03/30 03:08:56;;;;;;;;;;;4.10;97.80;;;;;;5071854;28;19915;-75
2021/03/30 03:11:22;;;;;;;;;;;4.10;98.00;;;;;;5071897;28;19912;-75
2021/03/30 03:13:49;;;;;;;;;;;4.10;98.30;;;;;;5071451;28;19908;-75
2021/03/30 03:16:16;;;;;;;;;;;4.10;98.50;;;;;;5070927;28;19908;-75
2021/03/30 03:18:42;;;;;;;;;;;4.10;98.60;;;;;;5070361;28;19912;-75
2021/03/30 03:21:10;;;;;;;;;;;4.10;98.70;;;;;;5070870;28;19956;-75
2021/03/30 03:23:37;;;;;;;;;;;4.10;98.90;;;;;;5063410;28;19909;-75
2021/03/30 03:26:02;;;;;;;;;;;4.00;98.90;;;;;;5070451;28;19919;-75
2021/03/30 03:28:28;;;;;;;;;;;4.00;99.00;;;;;;5070013;28;19908;-75
2021/03/30 03:30:53;;;;;;;;;;;4.00;99.10;;;;;;5071766;28;19996;-75
2021/03/30 03:33:19;;;;;;;;;;;4.00;99.10;;;;;;5071241;28;19915;-75
2021/03/30 03:36:00;;;;;;;;;;;4.10;99.30;;;;;;5070392;28;19916;-75
2021/03/30 03:38:26;;;;;;;;;;;4.10;99.30;;;;;;5071487;28;20313;-75
2021/03/30 03:40:52;;;;;;;;;;;4.10;99.40;;;;;;5071423;28;19949;-75
2021/03/30 03:43:17;;;;;;;;;;;4.00;99.60;;;;;;5070946;28;19934;-75
2021/03/30 03:45:43;;;;;;;;;;;4.00;99.90;;;;;;5070375;28;19908;-75
2021/03/30 03:48:08;;;;;;;;;;;3.90;99.90;;;;;;5071503;28;19912;-75
2021/03/30 03:50:34;;;;;;;;;;;3.90;99.90;;;;;;5071249;28;19917;-75
2021/03/30 03:52:59;;;;;;;;;;;3.80;99.90;;;;;;5063927;28;19995;-75
2021/03/30 03:55:25;;;;;;;;;;;3.80;99.90;;;;;;5070677;28;19916;-75
2021/03/30 03:57:57;;;;;;;;;;;3.70;99.90;;;;;;5069759;28;19947;-75
2021/03/30 04:00:24;;;;;;;;;;;3.70;99.90;;;;;;5071102;28;20381;-75
2021/03/30 04:03:08;;;;;;;;;;;3.60;99.90;;;;;;5071289;28;19912;-75
2021/03/30 04:05:41;;;;;;;;;;;3.60;99.90;;;;;;5070690;28;19913;-75
2021/03/30 04:08:12;;;;;;;;;;;3.60;99.90;;;;;;5071156;28;20369;-75
2021/03/30 04:10:38;;;;;;;;;;;3.50;99.90;;;;;;5071134;28;19915;-75
2021/03/30 04:13:04;;;;;;;;;;;3.40;99.90;;;;;;5070732;28;19909;-75
2021/03/30 04:15:29;;;;;;;;;;;3.40;99.90;;;;;;5070949;28;19908;-75
2021/03/30 04:17:55;;;;;;;;;;;3.40;99.90;;;;;;5061457;28;19909;-75
2021/03/30 04:20:21;;;;;;;;;;;3.40;99.90;;;;;;5070567;28;20262;-75
2021/03/30 04:22:58;;;;;;;;;;;3.30;99.90;;;;;;5070827;28;19909;-75
2021/03/30 04:25:23;;;;;;;;;;;3.30;99.90;;;;;;5070923;28;20382;-75
2021/03/30 04:27:49;;;;;;;;;;;3.30;99.90;;;;;;5067280;28;19912;-75
2021/03/30 04:30:14;;;;;;;;;;;3.40;99.90;;;;;;5066976;28;20408;-75
2021/03/30 04:32:40;;;;;;;;;;;3.40;99.90;;;;;;5070656;28;19913;-75
2021/03/30 04:35:06;;;;;;;;;;;3.40;99.90;;;;;;5070684;28;19908;-75
2021/03/30 04:37:32;;;;;;;;;;;3.40;99.90;;;;;;5069955;28;19912;-75
2021/03/30 04:39:57;;;;;;;;;;;3.40;99.90;;;;;;5070719;28;19993;-75
2021/03/30 04:42:23;;;;;;;;;;;3.40;99.90;;;;;;5070683;28;20388;-75
2021/03/30 04:44:48;;;;;;;;;;;3.40;99.90;;;;;;5070573;28;19908;-75
2021/03/30 04:47:14;;;;;;;;;;;3.30;99.90;;;;;;5069595;28;19970;-75
2021/03/30 04:49:39;;;;;;;;;;;3.30;99.90;;;;;;5070459;28;19912;-75
2021/03/30 04:52:05;;;;;;;;;;;3.20;99.90;;;;;;5069275;28;19909;-75
2021/03/30 04:54:30;;;;;;;;;;;3.10;99.90;;;;;;5069368;28;19966;-75
2021/03/30 04:56:56;;;;;;;;;;;3.10;99.90;;;;;;5069672;28;19909;-75
2021/03/30 04:59:22;;;;;;;;;;;3.00;99.90;;;;;;5066078;28;19920;-75
2021/03/30 05:01:47;;;;;;;;;;;3.00;99.90;;;;;;5094591;28;19919;-75
2021/03/30 05:04:13;;;;;;;;;;;3.00;99.90;;;;;;5094605;28;19915;-75
2021/03/30 05:06:38;;;;;;;;;;;3.00;99.90;;;;;;5080167;28;19919;-75
2021/03/30 05:09:04;;;;;;;;;;;3.00;99.90;;;;;;5074259;28;20262;-75
2021/03/30 05:11:30;;;;;;;;;;;3.00;99.90;;;;;;5073995;28;19909;-75
2021/03/30 05:13:55;;;;;;;;;;;3.00;99.90;;;;;;5073808;28;19908;-75
2021/03/30 05:16:21;;;;;;;;;;;3.00;99.90;;;;;;5072984;28;19915;-75
2021/03/30 05:18:46;;;;;;;;;;;3.00;99.90;;;;;;5073833;28;19962;-75
2021/03/30 05:21:12;;;;;;;;;;;3.10;99.90;;;;;;5074156;28;19908;-75
2021/03/30 05:23:37;;;;;;;;;;;3.10;99.90;;;;;;5073923;28;19909;-75
2021/03/30 05:26:03;;;;;;;;;;;3.20;99.90;;;;;;5071467;28;19959;-75
2021/03/30 05:28:29;;;;;;;;;;;3.20;99.90;;;;;;5073706;28;19970;-75
2021/03/30 05:30:54;;;;;;;;;;;3.10;99.90;;;;;;5073889;28;19966;-75
2021/03/30 05:33:20;;;;;;;;;;;3.20;99.90;;;;;;5070797;28;19975;-75
2021/03/30 05:35:45;;;;;;;;;;;3.20;99.90;;;;;;5068303;28;20003;-75
2021/03/30 05:38:11;;;;;;;;;;;3.20;99.90;;;;;;5077961;28;20003;-75
2021/03/30 05:40:37;;;;;;;;;;;3.30;99.90;;;;;;5053452;28;19913;-75
2021/03/30 05:43:02;;;;;;;;;;;3.30;99.90;;;;;;5053877;28;19913;-75
2021/03/30 05:45:28;;;;;;;;;;;3.30;99.90;;;;;;5053872;28;19920;-75
2021/03/30 05:47:54;;;;;;;;;;;3.30;99.90;;;;;;5054030;28;19916;-75
2021/03/30 05:50:21;;;;;;;;;;;3.30;99.90;;;;;;5070086;28;19915;-75
2021/03/30 05:55:26;;;;;;;;;;;3.40;99.90;;;;;;5052812;28;19913;-75
2021/03/30 05:57:53;;;;;;;;;;;3.50;99.90;;;;;;5068364;28;19995;-75
2021/03/30 06:00:19;;;;;;;;;;;3.50;99.90;;;;;;5072710;28;20011;-75
2021/03/30 06:02:45;;;;;;;;;;;3.60;99.90;;;;;;5071687;28;19912;-75
2021/03/30 06:05:15;;;;;;;;;;;3.60;99.90;;;;;;5073131;28;20392;-75
2021/03/30 06:07:41;;;;;;;;;;;3.70;99.90;;;;;;5070778;28;20271;-75
2021/03/30 06:10:08;;;;;;;;;;;3.80;99.90;;;;;;5073138;28;19999;-75
2021/03/30 06:12:33;;;;;;;;;;;3.80;99.90;;;;;;5069916;28;20034;-75
2021/03/30 06:15:03;;;;;;;;;;;3.90;99.90;;;;;;5067332;28;19943;-75
2021/03/30 06:17:38;;;;;;;;;;;4.00;99.90;;;;;;5060389;28;19999;-75
2021/03/30 06:20:04;;;;;;;;;;;4.00;99.90;;;;;;5064503;28;19913;-75
2021/03/30 06:22:29;;;;;;;;;;;4.10;99.90;;;;;;5067255;28;19909;-75
2021/03/30 06:24:56;;;;;;;;;;;4.10;99.90;;;;;;5072044;28;20079;-75
2021/03/30 06:27:26;;;;;;;;;;;4.30;99.90;;;;;;5067416;28;20362;-75
2021/03/30 06:29:52;;;;;;;;;;;4.30;99.90;;;;;;5072246;28;20370;-75
2021/03/30 06:32:19;;;;;;;;;;;4.30;99.90;;;;;;5070851;28;19909;-75
2021/03/30 06:34:46;;;;;;;;;;;4.40;99.90;;;;;;5061176;28;19909;-75
2021/03/30 06:37:27;;;;;;;;;;;4.50;99.90;;;;;;5053453;28;19917;-75
2021/03/30 06:39:53;;;;;;;;;;;4.70;99.90;;;;;;5059574;28;19916;-75
2021/03/30 06:42:30;;;;;;;;;;;4.90;99.90;;;;;;5069166;28;19909;-75
2021/03/30 06:44:56;;;;;;;;;;;5.00;99.90;;;;;;5068725;28;19913;-75
2021/03/30 06:47:23;;;;;;;;;;;5.20;99.90;;;;;;5057373;28;19909;-75
2021/03/30 06:49:58;;;;;;;;;;;5.30;99.90;;;;;;5068761;28;19955;-75
2021/03/30 06:52:34;;;;;;;;;;;5.40;99.90;;;;;;5069324;28;19917;-75
2021/03/30 06:55:09;;;;;;;;;;;5.60;99.90;;;;;;5069547;28;20011;-75
2021/03/30 06:57:35;;;;;;;;;;;5.70;99.90;;;;;;5067055;28;19966;-75
2021/03/30 07:00:08;;;;;;;;;;;5.80;99.90;;;;;;5071678;28;19917;-75
2021/03/30 07:02:38;;;;;;;;;;;5.90;99.90;;;;;;5071388;28;19919;-75
2021/03/30 07:05:04;;;;;;;;;;;6.10;99.90;;;;;;5071131;28;19908;-75
2021/03/30 07:07:29;;;;;;;;;;;6.20;99.90;;;;;;5065996;28;19909;-75
2021/03/30 07:09:55;;;;;;;;;;;6.40;99.90;;;;;;5058606;28;19944;-75
2021/03/30 07:12:24;;;;;;;;;;;6.60;99.90;;;;;;5068311;28;19919;-75
2021/03/30 07:14:50;;;;;;;;;;;6.80;99.70;;;;;;5070050;28;19917;-75
2021/03/30 07:17:21;;;;;;;;;;;7.00;99.50;;;;;;5057867;28;19920;-75
2021/03/30 07:19:47;;;;;;;;;;;7.20;99.50;;;;;;5074042;28;20373;-75
2021/03/30 07:22:14;;;;;;;;;;;7.40;99.00;;;;;;5091490;28;19915;-75
2021/03/30 07:24:47;;;;;;;;;;;7.50;98.30;;;;;;5073864;28;19908;-75
2021/03/30 07:27:16;;;;;;;;;;;7.70;97.70;;;;;;5068885;28;20393;-75
2021/03/30 07:29:46;;;;;;;;;;;7.90;97.70;;;;;;5069481;28;19908;-75
2021/03/30 07:32:23;;;;;;;;;;;8.00;97.70;;;;;;5070833;28;19938;-75
2021/03/30 07:34:51;;;;;;;;;;;8.20;97.90;;;;;;5071441;28;20413;-75
2021/03/30 07:37:39;;;;;;;;;;;8.40;97.90;;;;;;5067257;28;19916;-75
2021/03/30 07:40:06;;;;;;;;;;;8.60;97.60;;;;;;5066197;28;19957;-75
2021/03/30 07:42:32;;;;;;;;;;;8.80;96.80;;;;;;5059068;28;19912;-75
2021/03/30 07:44:58;;;;;;;;;;;9.40;96.40;;;;;;5063781;28;19908;-75
2021/03/30 07:47:24;;;;;;;;;;;10.30;95.70;;;;;;5066164;28;19955;-76
2021/03/30 07:49:51;;;;;;;;;;;11.30;94.60;;;;;;5067528;28;19916;-76
2021/03/30 07:52:20;;;;;;;;;;;12.20;94.10;;;;;;5068999;28;19998;-76
2021/03/30 07:55:04;;;;;;;;;;;12.70;93.40;;;;;;5065234;28;19909;-76
2021/03/30 07:57:48;;;;;;;;;;;13.00;92.70;;;;;;5069555;28;19915;-76
2021/03/30 08:00:32;;;;;;;;;;;13.40;91.50;;;;;;5069632;28;20383;-76
2021/03/30 08:03:02;;;;;;;;;;;14.10;90.00;;;;;;5070626;28;19909;-76
2021/03/30 08:05:28;;;;;;;;;;;15.00;85.50;;;;;;5069228;28;19912;-76
2021/03/30 08:07:54;;;;;;;;;;;15.90;82.90;;;;;;5062713;28;19965;-76
2021/03/30 08:10:20;;;;;;;;;;;16.80;80.60;;;;;;5060002;28;19908;-76
2021/03/30 08:12:46;;;;;;;;;;;17.50;77.40;;;;;;5069834;28;19909;-76
2021/03/30 08:15:31;;;;;;;;;;;18.10;74.90;;;;;;5065349;28;19960;-77
2021/03/30 08:17:57;;;;;;;;;;;18.80;74.50;;;;;;5063381;28;20011;-77
2021/03/30 08:20:25;;;;;;;;;;;19.40;72.10;;;;;;5066327;28;19919;-74
2021/03/30 08:23:03;;;;;;;;;;;20.10;69.40;;;;;;5056582;28;19939;-74
2021/03/30 08:25:29;;;;;;;;;;;20.70;68.00;;;;;;5080347;28;19962;-74
2021/03/30 08:27:54;;;;;;;;;;;21.10;66.90;;;;;;5066887;28;19909;-75
2021/03/30 08:30:26;;;;;;;;;;;21.40;67.10;;;;;;5052633;28;20006;-75
2021/03/30 08:32:53;;;;;;;;;;;21.70;64.90;;;;;;5074748;28;19920;-75
2021/03/30 08:35:27;;;;;;;;;;;22.00;65.10;;;;;;5077211;28;19923;-75
2021/03/30 08:37:53;;;;;;;;;;;22.20;62.70;;;;;;5075496;28;19966;-75
2021/03/30 08:40:34;;;;;;;;;;;22.50;62.80;;;;;;5072167;28;19916;-75
2021/03/30 08:43:00;;;;;;;;;;;22.80;61.70;;;;;;5064414;28;19913;-75
2021/03/30 08:45:25;;;;;;;;;;;23.20;61.10;;;;;;5069749;28;19915;-75
2021/03/30 08:48:08;;;;;;;;;;;23.40;60.60;;;;;;5059973;28;20406;-75
2021/03/30 08:50:35;;;;;;;;;;;23.60;60.90;;;;;;5071988;28;20350;-75
2021/03/30 08:53:00;;;;;;;;;;;23.70;60.60;;;;;;5072807;28;20381;-75
2021/03/30 08:55:27;;;;;;;;;;;23.90;58.70;;;;;;5062480;28;19923;-75
2021/03/30 08:57:53;;;;;;;;;;;24.20;59.10;;;;;;5071857;28;19908;-75
2021/03/30 09:00:18;;;;;;;;;;;24.30;58.30;;;;;;5064716;28;20012;-75
2021/03/30 09:02:44;;;;;;;;;;;24.40;55.40;;;;;;5066238;28;20003;-75
2021/03/30 09:05:15;;;;;;;;;;;24.60;56.60;;;;;;5073205;28;21016;-75
2021/03/30 09:07:44;;;;;;;;;;;24.70;57.60;;;;;;5069479;28;19913;-75
2021/03/30 09:10:11;;;;;;;;;;;24.90;55.70;;;;;;5062040;28;19913;-75
2021/03/30 09:12:36;;;;;;;;;;;25.10;56.90;;;;;;5067240;28;19967;-75
2021/03/30 09:15:12;;;;;;;;;;;25.30;52.50;;;;;;5073661;28;19971;-75
2021/03/30 09:17:59;;;;;;;;;;;25.50;53.50;;;;;;5064567;28;19915;-75
2021/03/30 09:20:26;;;;;;;;;;;25.70;53.80;;;;;;5068077;28;19962;-75
2021/03/30 09:22:53;;;;;;;;;;;26.10;50.40;;;;;;5069000;28;19909;-75
2021/03/30 09:25:27;;;;;;;;;;;26.40;50.50;;;;;;5065192;28;19909;-75
2021/03/30 09:27:53;;;;;;;;;;;26.60;50.80;;;;;;5070993;28;19924;-75
2021/03/30 09:30:20;;;;;;;;;;;27.00;48.50;;;;;;5067828;28;19912;-75
2021/03/30 09:32:46;;;;;;;;;;;27.20;45.80;;;;;;5074199;28;19909;-78
2021/03/30 09:35:13;;;;;;;;;;;27.20;44.40;;;;;;5071049;28;19965;-78
2021/03/30 09:37:48;;;;;;;;;;;27.00;47.60;;;;;;5074106;28;19909;-78
2021/03/30 09:40:18;;;;;;;;;;;27.00;44.60;;;;;;5055022;28;19919;-78
2021/03/30 09:42:44;;;;;;;;;;;27.30;46.50;;;;;;5067771;28;19916;-78
2021/03/30 09:45:11;;;;;;;;;;;27.70;45.70;;;;;;5073132;28;19908;-78
2021/03/30 09:47:37;;;;;;;;;;;27.90;47.20;;;;;;5072177;28;19923;-78
2021/03/30 09:50:03;;;;;;;;;;;28.20;46.80;;;;;;5068136;28;20010;-78
2021/03/30 09:52:31;;;;;;;;;;;28.50;44.40;;;;;;5072553;28;19908;-78
2021/03/30 09:54:57;;;;;;;;;;;28.70;44.90;;;;;;5073382;28;20396;-78
2021/03/30 09:57:26;;;;;;;;;;;28.90;42.30;;;;;;5071942;28;19909;-78
2021/03/30 09:59:52;;;;;;;;;;;29.20;43.90;;;;;;5073055;28;20126;-78
2021/03/30 10:02:18;;;;;;;;;;;29.40;43.80;;;;;;5072317;28;20000;-79
2021/03/30 10:04:44;;;;;;;;;;;29.60;42.50;;;;;;5071350;28;20011;-78
2021/03/30 10:07:14;;;;;;;;;;;29.50;42.60;;;;;;5070429;28;20333;-78
2021/03/30 10:09:59;;;;;;;;;;;29.20;40.60;;;;;;5061369;28;19915;-78
2021/03/30 10:12:37;;;;;;;;;;;29.10;40.90;;;;;;5062958;28;19916;-79
2021/03/30 10:15:04;;;;;;;;;;;29.30;41.40;;;;;;5072710;28;19954;-78
2021/03/30 10:17:30;;;;;;;;;;;29.10;37.60;;;;;;5065438;28;19952;-78
2021/03/30 10:19:57;;;;;;;;;;;28.50;39.70;;;;;;5067217;28;19912;-75
2021/03/30 10:22:22;;;;;;;;;;;28.40;39.10;;;;;;5063669;28;19931;-76
2021/03/30 10:25:23;;;;;;;;;;;28.30;40.70;;;;;;5072389;28;20452;-75
2021/03/30 10:27:53;;;;;;;;;;;28.30;40.40;;;;;;5069170;28;20043;-77
2021/03/30 10:30:27;;;;;;;;;;;28.50;40.90;;;;;;5069777;28;20135;-75
2021/03/30 10:32:54;;;;;;;;;;;28.70;40.40;;;;;;5052185;28;19944;-75
2021/03/30 10:35:20;;;;;;;;;;;29.00;41.60;;;;;;5051971;28;19916;-75
2021/03/30 10:37:46;;;;;;;;;;;29.00;41.00;;;;;;5054890;28;19908;-75
2021/03/30 10:40:12;;;;;;;;;;;29.00;37.60;;;;;;5062894;28;19917;-75
2021/03/30 10:42:40;;;;;;;;;;;29.00;40.90;;;;;;5054106;28;19916;-77
2021/03/30 10:45:10;;;;;;;;;;;29.20;37.50;;;;;;5059726;28;19916;-75
2021/03/30 10:47:37;;;;;;;;;;;29.40;39.80;;;;;;5070669;28;19909;-76
2021/03/30 10:50:06;;;;;;;;;;;29.50;38.20;;;;;;5070706;28;19916;-75
2021/03/30 10:52:36;;;;;;;;;;;29.80;36.30;;;;;;5073830;28;19919;-78
2021/03/30 10:55:04;;;;;;;;;;;29.80;35.20;;;;;;5054628;28;19917;-75
2021/03/30 10:57:34;;;;;;;;;;;30.00;37.80;;;;;;5072411;28;20002;-77
2021/03/30 11:00:01;;;;;;;;;;;30.00;35.50;;;;;;5061937;28;19917;-75
2021/03/30 11:02:27;;;;;;;;;;;29.70;35.40;;;;;;5077834;28;19908;-75
2021/03/30 11:04:52;;;;;;;;;;;29.60;37.00;;;;;;5090817;28;19931;-74
2021/03/30 11:07:18;;;;;;;;;;;28.90;35.30;;;;;;5091161;28;19918;-76
2021/03/30 11:09:43;;;;;;;;;;;28.90;38.60;;;;;;5093016;28;19908;-75
2021/03/30 11:12:10;;;;;;;;;;;29.10;37.70;;;;;;5079352;28;19999;-75
2021/03/30 11:14:35;;;;;;;;;;;29.40;37.40;;;;;;5061723;28;20480;-75
2021/03/30 11:17:01;;;;;;;;;;;29.70;37.90;;;;;;5064748;28;20278;-75
2021/03/30 11:19:28;;;;;;;;;;;29.90;35.20;;;;;;5067956;28;20365;-75
2021/03/30 11:21:54;;;;;;;;;;;29.80;36.70;;;;;;5065063;28;19940;-74
2021/03/30 11:24:25;;;;;;;;;;;29.90;37.00;;;;;;5071455;28;20418;-75
2021/03/30 11:26:52;;;;;;;;;;;30.00;36.70;;;;;;5065407;28;19917;-76
2021/03/30 11:29:24;;;;;;;;;;;29.80;35.20;;;;;;5067691;28;19915;-75
2021/03/30 11:32:13;;;;;;;;;;;29.80;35.00;;;;;;5053136;28;19912;-75
2021/03/30 11:38:19;;;;;;;;;;;29.50;35.20;;;;;;5063215;28;19916;-75
2021/03/30 11:40:26;;;;;;;;;;;29.50;34.20;;;;;;5061176;28;19916;-75
2021/03/30 11:42:51;;;;;;;;;;;29.30;35.40;;;;;;5062037;28;19908;-75
2021/03/30 11:45:17;;;;;;;;;;;29.50;33.90;;;;;;5063081;28;19918;-75
2021/03/30 11:47:42;;;;;;;;;;;29.20;32.10;;;;;;5058965;28;19986;-75
2021/03/30 11:50:08;;;;;;;;;;;29.00;31.80;;;;;;5059949;28;19963;-75
2021/03/30 11:52:34;;;;;;;;;;;28.80;33.70;;;;;;5066321;28;19931;-75
2021/03/30 11:55:00;;;;;;;;;;;28.30;32.50;;;;;;5071018;28;20285;-75
2021/03/30 11:57:26;;;;;;;;;;;28.40;33.20;;;;;;5068732;28;19916;-75
2021/03/30 11:59:51;;;;;;;;;;;28.40;33.90;;;;;;5066483;28;19920;-75
2021/03/30 12:02:17;;;;;;;;;;;28.30;34.20;;;;;;5065799;28;19908;-76
2021/03/30 12:04:42;;;;;;;;;;;28.30;33.70;;;;;;5056682;28;19915;-76
2021/03/30 12:07:08;;;;;;;;;;;27.90;32.70;;;;;;5055649;28;19913;-74
2021/03/30 12:09:34;;;;;;;;;;;27.90;33.20;;;;;;5062091;28;20003;-75
2021/03/30 12:11:59;;;;;;;;;;;27.60;33.70;;;;;;5060722;28;19909;-78
2021/03/30 12:14:25;;;;;;;;;;;27.40;34.30;;;;;;5054268;28;20003;-74
2021/03/30 12:16:51;;;;;;;;;;;27.00;33.60;;;;;;5065031;28;19916;-78
2021/03/30 12:19:18;;;;;;;;;;;26.60;34.50;;;;;;5055242;28;22330;-76
2021/03/30 12:21:45;;;;;;;;;;;26.00;35.50;;;;;;5060270;28;20797;-74
2021/03/30 12:24:10;;;;;;;;;;;25.70;37.50;;;;;;5065412;28;19909;-74
2021/03/30 12:26:36;;;;;;;;;;;25.30;37.30;;;;;;5062954;28;20400;-75
2021/03/30 12:29:02;;;;;;;;;;;24.90;37.50;;;;;;5084821;28;19956;-77
2021/03/30 12:31:29;;;;;;;;;;;24.50;37.00;;;;;;5072953;28;19924;-75
2021/03/30 12:33:54;;;;;;;;;;;24.30;39.70;;;;;;5066134;28;19934;-75
2021/03/30 12:36:20;;;;;;;;;;;24.10;41.30;;;;;;5065551;28;19921;-77
2021/03/30 12:38:45;;;;;;;;;;;23.90;39.50;;;;;;5058822;28;19920;-74
2021/03/30 12:41:11;;;;;;;;;;;23.90;40.40;;;;;;5062711;28;19916;-74
2021/03/30 12:43:36;;;;;;;;;;;23.90;40.50;;;;;;5059280;28;19909;-79
2021/03/30 12:46:02;;;;;;;;;;;23.80;42.20;;;;;;5064009;28;19935;-75
2021/03/30 12:48:27;;;;;;;;;;;23.60;41.00;;;;;;5059998;28;19908;-74
2021/03/30 12:50:53;;;;;;;;;;;23.60;41.50;;;;;;5074820;28;20301;-75
2021/03/30 12:53:18;;;;;;;;;;;23.50;41.20;;;;;;5069231;28;19909;-75
2021/03/30 12:55:44;;;;;;;;;;;23.50;42.00;;;;;;5069638;28;19909;-74
2021/03/30 12:58:09;;;;;;;;;;;23.50;41.70;;;;;;5070991;28;20227;-74
2021/03/30 13:00:35;;;;;;;;;;;23.40;40.60;;;;;;5070116;28;19931;-74
2021/03/30 13:03:00;;;;;;;;;;;23.20;41.00;;;;;;5070249;28;20366;-76
2021/03/30 13:05:26;;;;;;;;;;;23.20;42.10;;;;;;5070345;28;19908;-74
2021/03/30 13:07:52;;;;;;;;;;;23.20;40.00;;;;;;5064632;28;19908;-75
2021/03/30 13:10:17;;;;;;;;;;;23.20;40.70;;;;;;5070447;28;20292;-74
2021/03/30 13:12:42;;;;;;;;;;;23.40;41.60;;;;;;5069952;28;19915;-77
2021/03/30 13:15:08;;;;;;;;;;;23.40;40.00;;;;;;5070241;28;19912;-74
2021/03/30 13:17:34;;;;;;;;;;;23.40;39.90;;;;;;5069615;28;19915;-74
2021/03/30 13:20:00;;;;;;;;;;;23.30;39.90;;;;;;5070060;28;19961;-74
2021/03/30 13:22:26;;;;;;;;;;;23.40;37.80;;;;;;5072510;28;20003;-74
2021/03/30 13:24:52;;;;;;;;;;;23.30;37.10;;;;;;5074308;28;19912;-74
2021/03/30 13:27:18;;;;;;;;;;;23.30;38.40;;;;;;5069268;28;20003;-75
2021/03/30 13:29:44;;;;;;;;;;;23.30;38.90;;;;;;5073461;28;19908;-74
2021/03/30 13:32:14;;;;;;;;;;;23.20;38.00;;;;;;5073517;28;20327;-75
2021/03/30 13:34:40;;;;;;;;;;;23.20;38.70;;;;;;5073236;28;19919;-76
2021/03/30 13:37:07;;;;;;;;;;;23.10;37.90;;;;;;5065305;28;19917;-76
2021/03/30 13:39:33;;;;;;;;;;;23.00;37.80;;;;;;5072205;28;19912;-74
2021/03/30 13:41:59;;;;;;;;;;;23.00;37.90;;;;;;5073205;28;19913;-74
2021/03/30 13:44:25;;;;;;;;;;;23.00;39.70;;;;;;5072893;28;19915;-74
2021/03/30 13:46:51;;;;;;;;;;;23.00;39.70;;;;;;5068030;28;19908;-75
2021/03/30 13:49:17;;;;;;;;;;;23.10;40.90;;;;;;5071643;28;20281;-75
2021/03/30 13:51:45;;;;;;;;;;;23.10;39.80;;;;;;5073059;28;20476;-75
2021/03/30 13:54:11;;;;;;;;;;;23.10;38.30;;;;;;5072542;28;19919;-75
2021/03/30 13:56:37;;;;;;;;;;;23.10;37.70;;;;;;5072295;28;19951;-75
2021/03/30 13:59:03;;;;;;;;;;;23.10;37.40;;;;;;5072932;28;19955;-75
2021/03/30 14:01:28;;;;;;;;;;;23.20;37.80;;;;;;5072979;28;19909;-76
2021/03/30 14:03:54;;;;;;;;;;;23.20;37.70;;;;;;5071256;28;19919;-76
2021/03/30 14:06:19;;;;;;;;;;;23.20;35.40;;;;;;5072176;28;19909;-75
2021/03/30 14:08:45;;;;;;;;;;;23.10;35.70;;;;;;5073021;28;20265;-75
2021/03/30 14:11:10;;;;;;;;;;;23.10;36.10;;;;;;5072798;28;19913;-76
2021/03/30 14:13:41;;;;;;;;;;;23.10;36.60;;;;;;5072496;28;19962;-78
2021/03/30 14:16:10;;;;;;;;;;;23.20;36.40;;;;;;5068761;28;19909;-75
2021/03/30 14:19:07;;;;;;;;;;;23.20;36.50;;;;;;5072614;28;20347;-76
2021/03/30 14:21:37;;;;;;;;;;;23.20;36.40;;;;;;5072455;28;19923;-75
2021/03/30 14:24:06;;;;;;;;;;;23.20;36.40;;;;;;5072389;28;19963;-75
2021/03/30 14:26:31;;;;;;;;;;;23.10;36.50;;;;;;5071695;28;20281;-75
2021/03/30 14:28:57;;;;;;;;;;;23.20;36.80;;;;;;5072695;28;19915;-76
2021/03/30 14:31:23;;;;;;;;;;;23.10;36.60;;;;;;5063900;28;19908;-76
2021/03/30 14:33:49;;;;;;;;;;;23.20;37.30;;;;;;5070998;28;19955;-77